sensor_id;sensor_type;location;lat;lon;timestamp;temperature;humidity
34147;DHT22;20423;49.448;9.056;2023-05-21T00:00:35;14.30;99.90
34147;DHT22;20423;49.448;9.056;2023-05-21T00:03:01;14.30;99.90
34147;DHT22;20423;49.448;9.056;2023-05-21T00:05:42;14.30;99.90
34147;DHT22;20423;49.448;9.056;2023-05-21T00:08:09;14.30;99.90
34147;DHT22;20423;49.448;9.056;2023-05-21T00:10:35;14.30;99.90
34147;DHT22;20423;49.448;9.056;2023-05-21T00:13:00;14.30;99.90
34147;DHT22;20423;49.448;9.056;2023-05-21T00:15:26;14.30;99.90
34147;DHT22;20423;49.448;9.056;2023-05-21T00:17:52;14.40;99.90
34147;DHT22;20423;49.448;9.056;2023-05-21T00:20:17;14.40;99.90
34147;DHT22;20423;49.448;9.056;2023-05-21T00:22:52;14.40;99.90
34147;DHT22;20423;49.448;9.056;2023-05-21T00:25:18;14.40;99.90
34147;DHT22;20423;49.448;9.056;2023-05-21T00:27:43;14.40;99.90
34147;DHT22;20423;49.448;9.056;2023-05-21T00:30:09;14.40;99.90
34147;DHT22;20423;49.448;9.056;2023-05-21T00:32:44;14.40;99.90
34147;DHT22;20423;49.448;9.056;2023-05-21T00:35:10;14.40;99.90
34147;DHT22;20423;49.448;9.056;2023-05-21T00:37:35;14.40;99.90
34147;DHT22;20423;49.448;9.056;2023-05-21T00:40:01;14.40;99.90
34147;DHT22;20423;49.448;9.056;2023-05-21T00:42:29;14.40;99.90
34147;DHT22;20423;49.448;9.056;2023-05-21T00:44:55;14.40;99.90
34147;DHT22;20423;49.448;9.056;2023-05-21T00:50:09;14.30;99.90
34147;DHT22;20423;49.448;9.056;2023-05-21T00:52:35;14.30;99.90
34147;DHT22;20423;49.448;9.056;2023-05-21T00:55:06;14.30;99.90
34147;DHT22;20423;49.448;9.056;2023-05-21T00:57:32;14.40;99.90
34147;DHT22;20423;49.448;9.056;2023-05-21T00:59:58;14.40;99.90
34147;DHT22;20423;49.448;9.056;2023-05-21T01:02:24;14.40;99.90
34147;DHT22;20423;49.448;9.056;2023-05-21T01:08:19;14.40;99.90
34147;DHT22;20423;49.448;9.056;2023-05-21T01:10:46;14.40;99.90
34147;DHT22;20423;49.448;9.056;2023-05-21T01:13:15;14.30;99.90
34147;DHT22;20423;49.448;9.056;2023-05-21T01:15:42;14.40;99.90
34147;DHT22;20423;49.448;9.056;2023-05-21T01:18:08;14.30;99.90
34147;DHT22;20423;49.448;9.056;2023-05-21T01:20:34;14.40;99.90
34147;DHT22;20423;49.448;9.056;2023-05-21T01:22:59;14.40;99.90
34147;DHT22;20423;49.448;9.056;2023-05-21T01:25:25;14.40;99.90
34147;DHT22;20423;49.448;9.056;2023-05-21T01:27:51;14.40;99.90
34147;DHT22;20423;49.448;9.056;2023-05-21T01:30:17;14.40;99.90
34147;DHT22;20423;49.448;9.056;2023-05-21T01:35:21;14.40;99.90
34147;DHT22;20423;49.448;9.056;2023-05-21T01:40:24;14.40;99.90
34147;DHT22;20423;49.448;9.056;2023-05-21T01:42:52;14.30;99.90
34147;DHT22;20423;49.448;9.056;2023-05-21T01:45:21;14.30;99.90
34147;DHT22;20423;49.448;9.056;2023-05-21T01:47:59;14.30;99.90
34147;DHT22;20423;49.448;9.056;2023-05-21T01:50:25;14.20;99.90
34147;DHT22;20423;49.448;9.056;2023-05-21T01:52:52;14.20;99.90
34147;DHT22;20423;49.448;9.056;2023-05-21T01:55:18;14.20;99.90
34147;DHT22;20423;49.448;9.056;2023-05-21T01:57:52;14.20;99.90
34147;DHT22;20423;49.448;9.056;2023-05-21T02:00:18;14.20;99.90
34147;DHT22;20423;49.448;9.056;2023-05-21T02:02:45;14.20;99.90
34147;DHT22;20423;49.448;9.056;2023-05-21T02:05:10;14.20;99.90
34147;DHT22;20423;49.448;9.056;2023-05-21T02:07:36;14.20;99.90
34147;DHT22;20423;49.448;9.056;2023-05-21T02:10:02;14.20;99.90
34147;DHT22;20423;49.448;9.056;2023-05-21T02:12:28;14.20;99.90
34147;DHT22;20423;49.448;9.056;2023-05-21T02:14:54;14.20;99.90
34147;DHT22;20423;49.448;9.056;2023-05-21T02:17:21;14.20;99.90
34147;DHT22;20423;49.448;9.056;2023-05-21T02:19:48;14.20;99.90
34147;DHT22;20423;49.448;9.056;2023-05-21T02:22:14;14.20;99.90
34147;DHT22;20423;49.448;9.056;2023-05-21T02:24:40;14.20;99.90
34147;DHT22;20423;49.448;9.056;2023-05-21T02:27:05;14.20;99.90
34147;DHT22;20423;49.448;9.056;2023-05-21T02:32:34;14.20;99.90
34147;DHT22;20423;49.448;9.056;2023-05-21T02:35:00;14.20;99.90
34147;DHT22;20423;49.448;9.056;2023-05-21T02:37:28;14.10;99.90
34147;DHT22;20423;49.448;9.056;2023-05-21T02:39:54;14.10;99.90
34147;DHT22;20423;49.448;9.056;2023-05-21T02:42:20;14.10;99.90
34147;DHT22;20423;49.448;9.056;2023-05-21T02:44:46;14.10;99.90
34147;DHT22;20423;49.448;9.056;2023-05-21T02:47:12;14.10;99.90
34147;DHT22;20423;49.448;9.056;2023-05-21T02:49:37;14.10;99.90
34147;DHT22;20423;49.448;9.056;2023-05-21T02:52:03;14.20;99.90
34147;DHT22;20423;49.448;9.056;2023-05-21T02:54:30;14.20;99.90
34147;DHT22;20423;49.448;9.056;2023-05-21T02:56:55;14.20;99.90
34147;DHT22;20423;49.448;9.056;2023-05-21T02:59:22;14.20;99.90
34147;DHT22;20423;49.448;9.056;2023-05-21T03:01:47;14.20;99.90
34147;DHT22;20423;49.448;9.056;2023-05-21T03:04:13;14.10;99.90
34147;DHT22;20423;49.448;9.056;2023-05-21T03:09:44;14.10;99.90
34147;DHT22;20423;49.448;9.056;2023-05-21T03:12:10;14.10;99.90
34147;DHT22;20423;49.448;9.056;2023-05-21T03:14:36;14.10;99.90
34147;DHT22;20423;49.448;9.056;2023-05-21T03:17:02;14.10;99.90
34147;DHT22;20423;49.448;9.056;2023-05-21T03:19:33;14.10;99.90
34147;DHT22;20423;49.448;9.056;2023-05-21T03:22:01;14.10;99.90
34147;DHT22;20423;49.448;9.056;2023-05-21T03:24:28;14.10;99.90
34147;DHT22;20423;49.448;9.056;2023-05-21T03:26:55;14.00;99.90
34147;DHT22;20423;49.448;9.056;2023-05-21T03:29:21;14.00;99.90
34147;DHT22;20423;49.448;9.056;2023-05-21T03:31:47;13.90;99.90
34147;DHT22;20423;49.448;9.056;2023-05-21T03:34:13;13.90;99.90
34147;DHT22;20423;49.448;9.056;2023-05-21T03:36:39;13.90;99.90
34147;DHT22;20423;49.448;9.056;2023-05-21T03:39:05;13.80;99.90
34147;DHT22;20423;49.448;9.056;2023-05-21T03:41:32;13.80;99.90
34147;DHT22;20423;49.448;9.056;2023-05-21T03:47:35;13.70;99.90
34147;DHT22;20423;49.448;9.056;2023-05-21T03:50:03;13.70;99.90
34147;DHT22;20423;49.448;9.056;2023-05-21T03:52:30;13.70;99.90
34147;DHT22;20423;49.448;9.056;2023-05-21T03:54:56;13.70;99.90
34147;DHT22;20423;49.448;9.056;2023-05-21T03:57:21;13.80;99.90
34147;DHT22;20423;49.448;9.056;2023-05-21T04:02:46;13.70;99.90
34147;DHT22;20423;49.448;9.056;2023-05-21T04:05:14;13.80;99.90
34147;DHT22;20423;49.448;9.056;2023-05-21T04:07:40;13.80;99.90
34147;DHT22;20423;49.448;9.056;2023-05-21T04:10:12;13.90;99.90
34147;DHT22;20423;49.448;9.056;2023-05-21T04:12:38;13.90;99.90
34147;DHT22;20423;49.448;9.056;2023-05-21T04:15:03;13.80;99.90
34147;DHT22;20423;49.448;9.056;2023-05-21T04:17:30;13.90;99.90
34147;DHT22;20423;49.448;9.056;2023-05-21T04:19:55;13.90;99.90
34147;DHT22;20423;49.448;9.056;2023-05-21T04:25:14;13.90;99.90
34147;DHT22;20423;49.448;9.056;2023-05-21T04:27:40;14.00;99.90
34147;DHT22;20423;49.448;9.056;2023-05-21T04:30:08;14.00;99.90
34147;DHT22;20423;49.448;9.056;2023-05-21T04:32:54;14.10;99.90
34147;DHT22;20423;49.448;9.056;2023-05-21T04:35:29;14.10;99.90
34147;DHT22;20423;49.448;9.056;2023-05-21T04:37:55;14.10;99.90
34147;DHT22;20423;49.448;9.056;2023-05-21T04:40:21;14.20;99.90
34147;DHT22;20423;49.448;9.056;2023-05-21T04:45:51;14.30;99.90
34147;DHT22;20423;49.448;9.056;2023-05-21T04:48:19;14.40;99.90
34147;DHT22;20423;49.448;9.056;2023-05-21T04:50:46;14.40;99.90
34147;DHT22;20423;49.448;9.056;2023-05-21T04:53:13;14.50;99.90
34147;DHT22;20423;49.448;9.056;2023-05-21T04:55:51;14.50;99.90
34147;DHT22;20423;49.448;9.056;2023-05-21T04:58:18;14.50;99.90
34147;DHT22;20423;49.448;9.056;2023-05-21T05:00:44;14.60;99.90
34147;DHT22;20423;49.448;9.056;2023-05-21T05:03:11;14.70;99.90
34147;DHT22;20423;49.448;9.056;2023-05-21T05:05:37;14.70;99.90
34147;DHT22;20423;49.448;9.056;2023-05-21T05:08:03;14.80;99.90
34147;DHT22;20423;49.448;9.056;2023-05-21T05:10:28;14.90;99.90
34147;DHT22;20423;49.448;9.056;2023-05-21T05:12:54;14.90;99.90
34147;DHT22;20423;49.448;9.056;2023-05-21T05:15:20;15.00;99.90
34147;DHT22;20423;49.448;9.056;2023-05-21T05:17:46;15.00;99.90
34147;DHT22;20423;49.448;9.056;2023-05-21T05:20:15;15.00;99.90
34147;DHT22;20423;49.448;9.056;2023-05-21T05:22:41;15.10;99.90
34147;DHT22;20423;49.448;9.056;2023-05-21T05:25:06;15.10;99.90
34147;DHT22;20423;49.448;9.056;2023-05-21T05:27:32;15.10;99.90
34147;DHT22;20423;49.448;9.056;2023-05-21T05:29:58;15.20;99.90
34147;DHT22;20423;49.448;9.056;2023-05-21T05:32:24;15.30;99.90
34147;DHT22;20423;49.448;9.056;2023-05-21T05:34:50;15.40;99.90
34147;DHT22;20423;49.448;9.056;2023-05-21T05:37:16;15.40;99.90
34147;DHT22;20423;49.448;9.056;2023-05-21T05:39:42;15.40;99.90
34147;DHT22;20423;49.448;9.056;2023-05-21T05:42:08;15.50;99.90
34147;DHT22;20423;49.448;9.056;2023-05-21T05:44:34;15.60;99.90
34147;DHT22;20423;49.448;9.056;2023-05-21T05:47:00;15.70;99.90
34147;DHT22;20423;49.448;9.056;2023-05-21T05:49:26;15.80;99.90
34147;DHT22;20423;49.448;9.056;2023-05-21T05:51:52;15.90;99.90
34147;DHT22;20423;49.448;9.056;2023-05-21T05:54:18;16.00;99.90
34147;DHT22;20423;49.448;9.056;2023-05-21T05:56:44;16.10;99.90
34147;DHT22;20423;49.448;9.056;2023-05-21T05:59:10;16.20;99.90
34147;DHT22;20423;49.448;9.056;2023-05-21T06:01:37;16.30;99.90
34147;DHT22;20423;49.448;9.056;2023-05-21T06:04:03;16.50;99.90
34147;DHT22;20423;49.448;9.056;2023-05-21T06:06:29;16.50;99.90
34147;DHT22;20423;49.448;9.056;2023-05-21T06:08:56;16.60;99.90
34147;DHT22;20423;49.448;9.056;2023-05-21T06:11:24;16.60;99.90
34147;DHT22;20423;49.448;9.056;2023-05-21T06:13:51;16.70;99.90
34147;DHT22;20423;49.448;9.056;2023-05-21T06:16:17;16.80;99.90
34147;DHT22;20423;49.448;9.056;2023-05-21T06:18:42;17.00;99.90
34147;DHT22;20423;49.448;9.056;2023-05-21T06:21:08;17.20;99.90
34147;DHT22;20423;49.448;9.056;2023-05-21T06:23:34;17.30;99.90
34147;DHT22;20423;49.448;9.056;2023-05-21T06:26:05;17.30;99.90
34147;DHT22;20423;49.448;9.056;2023-05-21T06:28:31;17.50;99.90
34147;DHT22;20423;49.448;9.056;2023-05-21T06:30:57;17.60;99.90
34147;DHT22;20423;49.448;9.056;2023-05-21T06:33:24;17.50;99.90
34147;DHT22;20423;49.448;9.056;2023-05-21T06:35:52;17.50;99.90
34147;DHT22;20423;49.448;9.056;2023-05-21T06:38:36;17.70;99.90
34147;DHT22;20423;49.448;9.056;2023-05-21T06:41:01;17.80;99.90
34147;DHT22;20423;49.448;9.056;2023-05-21T06:43:47;17.70;99.90
34147;DHT22;20423;49.448;9.056;2023-05-21T06:46:31;17.80;99.90
34147;DHT22;20423;49.448;9.056;2023-05-21T06:48:57;18.00;99.90
34147;DHT22;20423;49.448;9.056;2023-05-21T06:51:25;18.10;99.90
34147;DHT22;20423;49.448;9.056;2023-05-21T06:53:51;18.20;99.90
34147;DHT22;20423;49.448;9.056;2023-05-21T06:56:17;18.20;99.90
34147;DHT22;20423;49.448;9.056;2023-05-21T06:58:43;18.10;99.90
34147;DHT22;20423;49.448;9.056;2023-05-21T07:01:10;18.30;99.90
34147;DHT22;20423;49.448;9.056;2023-05-21T07:03:38;18.60;99.90
34147;DHT22;20423;49.448;9.056;2023-05-21T07:08:52;18.80;99.90
34147;DHT22;20423;49.448;9.056;2023-05-21T07:11:36;18.90;99.90
34147;DHT22;20423;49.448;9.056;2023-05-21T07:14:04;18.70;99.90
34147;DHT22;20423;49.448;9.056;2023-05-21T07:16:45;19.20;99.90
34147;DHT22;20423;49.448;9.056;2023-05-21T07:19:11;19.30;99.90
34147;DHT22;20423;49.448;9.056;2023-05-21T07:21:38;19.30;99.90
34147;DHT22;20423;49.448;9.056;2023-05-21T07:24:05;19.20;99.90
34147;DHT22;20423;49.448;9.056;2023-05-21T07:29:18;19.50;99.90
34147;DHT22;20423;49.448;9.056;2023-05-21T07:31:44;19.50;99.90
34147;DHT22;20423;49.448;9.056;2023-05-21T07:34:10;19.60;99.90
34147;DHT22;20423;49.448;9.056;2023-05-21T07:42:21;20.40;99.90
34147;DHT22;20423;49.448;9.056;2023-05-21T07:44:47;20.50;99.90
34147;DHT22;20423;49.448;9.056;2023-05-21T07:47:12;20.80;99.90
34147;DHT22;20423;49.448;9.056;2023-05-21T07:49:50;21.00;99.90
34147;DHT22;20423;49.448;9.056;2023-05-21T07:52:16;21.60;99.90
34147;DHT22;20423;49.448;9.056;2023-05-21T07:54:42;21.70;99.90
34147;DHT22;20423;49.448;9.056;2023-05-21T07:57:08;21.80;99.90
34147;DHT22;20423;49.448;9.056;2023-05-21T08:00:00;22.00;99.90
34147;DHT22;20423;49.448;9.056;2023-05-21T08:02:28;22.00;99.90
34147;DHT22;20423;49.448;9.056;2023-05-21T08:04:54;21.70;99.90
34147;DHT22;20423;49.448;9.056;2023-05-21T08:07:20;21.90;99.90
34147;DHT22;20423;49.448;9.056;2023-05-21T08:09:46;22.70;99.90
34147;DHT22;20423;49.448;9.056;2023-05-21T08:12:12;23.30;99.90
34147;DHT22;20423;49.448;9.056;2023-05-21T08:15:08;23.60;99.90
34147;DHT22;20423;49.448;9.056;2023-05-21T08:17:41;23.40;99.90
34147;DHT22;20423;49.448;9.056;2023-05-21T08:20:13;22.90;99.90
34147;DHT22;20423;49.448;9.056;2023-05-21T08:22:40;22.90;99.90
34147;DHT22;20423;49.448;9.056;2023-05-21T08:25:07;23.20;99.90
34147;DHT22;20423;49.448;9.056;2023-05-21T08:27:33;23.30;99.90
34147;DHT22;20423;49.448;9.056;2023-05-21T08:29:59;23.80;99.90
34147;DHT22;20423;49.448;9.056;2023-05-21T08:32:25;24.20;99.90
34147;DHT22;20423;49.448;9.056;2023-05-21T08:34:52;24.20;99.90
34147;DHT22;20423;49.448;9.056;2023-05-21T08:37:44;24.60;99.90
34147;DHT22;20423;49.448;9.056;2023-05-21T08:40:16;24.90;99.90
34147;DHT22;20423;49.448;9.056;2023-05-21T08:45:34;27.50;99.90
34147;DHT22;20423;49.448;9.056;2023-05-21T08:48:04;27.60;99.90
34147;DHT22;20423;49.448;9.056;2023-05-21T08:50:32;27.20;99.90
34147;DHT22;20423;49.448;9.056;2023-05-21T08:53:01;26.70;99.90
34147;DHT22;20423;49.448;9.056;2023-05-21T08:55:27;25.80;99.90
34147;DHT22;20423;49.448;9.056;2023-05-21T08:57:53;26.20;99.90
34147;DHT22;20423;49.448;9.056;2023-05-21T09:00:19;26.00;99.90
34147;DHT22;20423;49.448;9.056;2023-05-21T09:02:45;26.30;99.90
34147;DHT22;20423;49.448;9.056;2023-05-21T09:05:11;27.30;99.90
34147;DHT22;20423;49.448;9.056;2023-05-21T09:07:42;27.00;98.80
34147;DHT22;20423;49.448;9.056;2023-05-21T09:10:25;26.50;98.40
34147;DHT22;20423;49.448;9.056;2023-05-21T09:12:51;26.90;99.50
34147;DHT22;20423;49.448;9.056;2023-05-21T09:15:17;27.00;99.10
34147;DHT22;20423;49.448;9.056;2023-05-21T09:17:47;26.30;99.90
34147;DHT22;20423;49.448;9.056;2023-05-21T09:20:36;26.50;99.90
34147;DHT22;20423;49.448;9.056;2023-05-21T09:23:02;27.30;98.80
34147;DHT22;20423;49.448;9.056;2023-05-21T09:25:29;27.90;98.10
34147;DHT22;20423;49.448;9.056;2023-05-21T09:27:59;28.20;98.30
34147;DHT22;20423;49.448;9.056;2023-05-21T09:30:26;28.80;97.30
34147;DHT22;20423;49.448;9.056;2023-05-21T09:33:01;29.20;95.30
34147;DHT22;20423;49.448;9.056;2023-05-21T09:35:28;28.70;94.70
34147;DHT22;20423;49.448;9.056;2023-05-21T09:37:54;28.00;96.20
34147;DHT22;20423;49.448;9.056;2023-05-21T09:40:22;27.60;95.60
34147;DHT22;20423;49.448;9.056;2023-05-21T09:42:51;27.40;96.70
34147;DHT22;20423;49.448;9.056;2023-05-21T09:45:20;27.40;97.20
34147;DHT22;20423;49.448;9.056;2023-05-21T09:47:47;27.20;98.10
34147;DHT22;20423;49.448;9.056;2023-05-21T09:50:17;26.80;97.90
34147;DHT22;20423;49.448;9.056;2023-05-21T09:52:43;26.50;98.70
34147;DHT22;20423;49.448;9.056;2023-05-21T09:55:10;26.20;98.80
34147;DHT22;20423;49.448;9.056;2023-05-21T09:57:42;25.90;99.40
34147;DHT22;20423;49.448;9.056;2023-05-21T10:00:29;26.00;99.90
34147;DHT22;20423;49.448;9.056;2023-05-21T10:02:54;25.80;99.90
34147;DHT22;20423;49.448;9.056;2023-05-21T10:05:20;25.40;99.90
34147;DHT22;20423;49.448;9.056;2023-05-21T10:07:48;25.30;99.90
34147;DHT22;20423;49.448;9.056;2023-05-21T10:10:15;25.40;99.90
34147;DHT22;20423;49.448;9.056;2023-05-21T10:12:44;25.60;99.90
34147;DHT22;20423;49.448;9.056;2023-05-21T10:15:14;25.70;99.90
34147;DHT22;20423;49.448;9.056;2023-05-21T10:17:41;25.30;99.90
34147;DHT22;20423;49.448;9.056;2023-05-21T10:20:07;25.30;99.90
34147;DHT22;20423;49.448;9.056;2023-05-21T10:22:35;25.30;99.90
34147;DHT22;20423;49.448;9.056;2023-05-21T10:25:00;25.60;99.90
34147;DHT22;20423;49.448;9.056;2023-05-21T10:27:28;25.80;99.90
34147;DHT22;20423;49.448;9.056;2023-05-21T10:29:55;25.90;99.90
34147;DHT22;20423;49.448;9.056;2023-05-21T10:32:21;26.20;99.90
34147;DHT22;20423;49.448;9.056;2023-05-21T10:34:47;26.10;97.80
34147;DHT22;20423;49.448;9.056;2023-05-21T10:37:13;26.30;99.30
34147;DHT22;20423;49.448;9.056;2023-05-21T10:39:39;26.50;99.80
34147;DHT22;20423;49.448;9.056;2023-05-21T10:42:12;26.60;99.50
34147;DHT22;20423;49.448;9.056;2023-05-21T10:47:39;26.80;98.80
34147;DHT22;20423;49.448;9.056;2023-05-21T10:52:54;26.30;98.90
34147;DHT22;20423;49.448;9.056;2023-05-21T11:00:54;24.80;99.90
34147;DHT22;20423;49.448;9.056;2023-05-21T11:03:20;24.60;99.90
34147;DHT22;20423;49.448;9.056;2023-05-21T11:05:50;24.50;99.90
34147;DHT22;20423;49.448;9.056;2023-05-21T11:08:25;24.50;99.90
34147;DHT22;20423;49.448;9.056;2023-05-21T11:10:52;24.60;99.90
34147;DHT22;20423;49.448;9.056;2023-05-21T11:13:18;24.70;99.90
34147;DHT22;20423;49.448;9.056;2023-05-21T11:18:22;25.40;99.90
34147;DHT22;20423;49.448;9.056;2023-05-21T11:20:50;25.80;99.90
34147;DHT22;20423;49.448;9.056;2023-05-21T11:23:17;25.70;99.90
34147;DHT22;20423;49.448;9.056;2023-05-21T11:25:42;25.60;99.20
34147;DHT22;20423;49.448;9.056;2023-05-21T11:28:08;25.60;99.20
34147;DHT22;20423;49.448;9.056;2023-05-21T11:30:34;25.20;98.10
34147;DHT22;20423;49.448;9.056;2023-05-21T11:38:09;27.40;95.30
34147;DHT22;20423;49.448;9.056;2023-05-21T11:40:35;27.60;94.60
34147;DHT22;20423;49.448;9.056;2023-05-21T11:43:01;27.30;94.00
34147;DHT22;20423;49.448;9.056;2023-05-21T11:45:36;26.70;95.20
34147;DHT22;20423;49.448;9.056;2023-05-21T11:48:01;26.70;94.00
34147;DHT22;20423;49.448;9.056;2023-05-21T11:50:27;26.90;95.30
34147;DHT22;20423;49.448;9.056;2023-05-21T11:52:55;27.10;94.90
34147;DHT22;20423;49.448;9.056;2023-05-21T11:55:22;27.20;95.80
34147;DHT22;20423;49.448;9.056;2023-05-21T11:57:48;26.90;96.00
34147;DHT22;20423;49.448;9.056;2023-05-21T12:00:16;27.00;97.10
34147;DHT22;20423;49.448;9.056;2023-05-21T12:02:43;27.30;95.50
34147;DHT22;20423;49.448;9.056;2023-05-21T12:08:00;27.70;93.50
34147;DHT22;20423;49.448;9.056;2023-05-21T12:10:26;27.30;94.80
34147;DHT22;20423;49.448;9.056;2023-05-21T12:12:51;27.00;95.70
34147;DHT22;20423;49.448;9.056;2023-05-21T12:15:17;26.70;94.50
34147;DHT22;20423;49.448;9.056;2023-05-21T12:17:43;26.40;94.00
34147;DHT22;20423;49.448;9.056;2023-05-21T12:20:08;26.50;94.10
34147;DHT22;20423;49.448;9.056;2023-05-21T12:22:39;26.50;95.40
34147;DHT22;20423;49.448;9.056;2023-05-21T12:25:06;26.50;96.20
34147;DHT22;20423;49.448;9.056;2023-05-21T12:27:38;26.20;95.10
34147;DHT22;20423;49.448;9.056;2023-05-21T12:30:12;26.30;95.50
34147;DHT22;20423;49.448;9.056;2023-05-21T12:35:36;26.80;95.80
34147;DHT22;20423;49.448;9.056;2023-05-21T12:38:01;27.10;93.70
34147;DHT22;20423;49.448;9.056;2023-05-21T12:40:35;27.40;94.00
34147;DHT22;20423;49.448;9.056;2023-05-21T12:43:04;27.80;94.80
34147;DHT22;20423;49.448;9.056;2023-05-21T12:48:59;28.20;94.10
34147;DHT22;20423;49.448;9.056;2023-05-21T12:51:24;28.80;91.00
34147;DHT22;20423;49.448;9.056;2023-05-21T12:53:50;28.90;92.00
34147;DHT22;20423;49.448;9.056;2023-05-21T12:56:15;28.80;90.50
34147;DHT22;20423;49.448;9.056;2023-05-21T12:58:41;28.40;90.10
34147;DHT22;20423;49.448;9.056;2023-05-21T13:01:07;28.50;91.50
34147;DHT22;20423;49.448;9.056;2023-05-21T13:03:37;29.00;90.80
34147;DHT22;20423;49.448;9.056;2023-05-21T13:06:07;29.40;89.30
34147;DHT22;20423;49.448;9.056;2023-05-21T13:08:33;29.60;88.40
34147;DHT22;20423;49.448;9.056;2023-05-21T13:14:46;30.50;84.10
34147;DHT22;20423;49.448;9.056;2023-05-21T13:17:24;30.40;85.40
34147;DHT22;20423;49.448;9.056;2023-05-21T13:20:12;30.10;82.40
34147;DHT22;20423;49.448;9.056;2023-05-21T13:22:40;30.10;79.30
34147;DHT22;20423;49.448;9.056;2023-05-21T13:25:13;30.40;79.00
34147;DHT22;20423;49.448;9.056;2023-05-21T13:27:44;29.80;78.00
34147;DHT22;20423;49.448;9.056;2023-05-21T13:30:10;29.00;77.10
34147;DHT22;20423;49.448;9.056;2023-05-21T13:32:36;28.00;80.40
34147;DHT22;20423;49.448;9.056;2023-05-21T13:35:18;27.70;82.00
34147;DHT22;20423;49.448;9.056;2023-05-21T13:40:53;27.90;82.20
34147;DHT22;20423;49.448;9.056;2023-05-21T13:43:22;28.90;80.30
34147;DHT22;20423;49.448;9.056;2023-05-21T13:45:48;29.40;82.00
34147;DHT22;20423;49.448;9.056;2023-05-21T13:48:20;29.70;79.50
34147;DHT22;20423;49.448;9.056;2023-05-21T13:50:46;30.40;80.80
34147;DHT22;20423;49.448;9.056;2023-05-21T13:53:12;29.50;79.30
34147;DHT22;20423;49.448;9.056;2023-05-21T13:55:38;29.10;82.40
34147;DHT22;20423;49.448;9.056;2023-05-21T13:58:03;28.30;84.50
34147;DHT22;20423;49.448;9.056;2023-05-21T14:00:29;27.80;82.30
34147;DHT22;20423;49.448;9.056;2023-05-21T14:02:55;28.00;79.60
34147;DHT22;20423;49.448;9.056;2023-05-21T14:05:21;28.80;81.10
34147;DHT22;20423;49.448;9.056;2023-05-21T14:07:47;29.00;80.50
34147;DHT22;20423;49.448;9.056;2023-05-21T14:10:13;29.30;80.60
34147;DHT22;20423;49.448;9.056;2023-05-21T14:12:39;28.50;78.20
34147;DHT22;20423;49.448;9.056;2023-05-21T14:15:05;27.80;81.00
34147;DHT22;20423;49.448;9.056;2023-05-21T14:17:32;28.00;80.60
34147;DHT22;20423;49.448;9.056;2023-05-21T14:19:57;28.50;79.10
34147;DHT22;20423;49.448;9.056;2023-05-21T14:22:23;29.40;77.70
34147;DHT22;20423;49.448;9.056;2023-05-21T14:24:49;30.00;76.50
34147;DHT22;20423;49.448;9.056;2023-05-21T14:27:15;28.90;74.70
34147;DHT22;20423;49.448;9.056;2023-05-21T14:29:41;27.90;74.70
34147;DHT22;20423;49.448;9.056;2023-05-21T14:32:07;27.30;78.70
34147;DHT22;20423;49.448;9.056;2023-05-21T14:34:33;27.40;80.90
34147;DHT22;20423;49.448;9.056;2023-05-21T14:36:58;27.50;74.60
34147;DHT22;20423;49.448;9.056;2023-05-21T14:39:24;27.60;75.80
34147;DHT22;20423;49.448;9.056;2023-05-21T14:41:50;27.70;75.50
34147;DHT22;20423;49.448;9.056;2023-05-21T14:44:15;27.90;78.70
34147;DHT22;20423;49.448;9.056;2023-05-21T14:46:41;28.20;76.90
34147;DHT22;20423;49.448;9.056;2023-05-21T14:49:07;28.00;74.20
34147;DHT22;20423;49.448;9.056;2023-05-21T14:51:32;27.90;77.80
34147;DHT22;20423;49.448;9.056;2023-05-21T14:53:58;27.50;78.60
34147;DHT22;20423;49.448;9.056;2023-05-21T14:56:25;27.30;80.50
34147;DHT22;20423;49.448;9.056;2023-05-21T14:58:52;27.20;80.20
34147;DHT22;20423;49.448;9.056;2023-05-21T15:01:18;27.10;80.10
34147;DHT22;20423;49.448;9.056;2023-05-21T15:03:44;26.80;81.60
34147;DHT22;20423;49.448;9.056;2023-05-21T15:06:09;26.20;82.10
34147;DHT22;20423;49.448;9.056;2023-05-21T15:08:35;26.00;86.50
34147;DHT22;20423;49.448;9.056;2023-05-21T15:11:01;26.30;84.30
34147;DHT22;20423;49.448;9.056;2023-05-21T15:13:33;26.80;84.40
34147;DHT22;20423;49.448;9.056;2023-05-21T15:15:58;27.00;81.20
34147;DHT22;20423;49.448;9.056;2023-05-21T15:18:24;26.50;80.70
34147;DHT22;20423;49.448;9.056;2023-05-21T15:20:50;26.30;82.40
34147;DHT22;20423;49.448;9.056;2023-05-21T15:23:16;26.90;84.60
34147;DHT22;20423;49.448;9.056;2023-05-21T15:25:42;27.50;81.60
34147;DHT22;20423;49.448;9.056;2023-05-21T15:28:07;28.00;80.20
34147;DHT22;20423;49.448;9.056;2023-05-21T15:30:33;28.10;80.20
34147;DHT22;20423;49.448;9.056;2023-05-21T15:32:59;27.90;79.60
34147;DHT22;20423;49.448;9.056;2023-05-21T15:35:26;27.70;78.90
34147;DHT22;20423;49.448;9.056;2023-05-21T15:37:51;27.50;77.60
34147;DHT22;20423;49.448;9.056;2023-05-21T15:40:17;27.10;79.00
34147;DHT22;20423;49.448;9.056;2023-05-21T15:42:43;27.20;81.10
34147;DHT22;20423;49.448;9.056;2023-05-21T15:45:09;26.50;81.80
34147;DHT22;20423;49.448;9.056;2023-05-21T15:47:35;26.00;84.50
34147;DHT22;20423;49.448;9.056;2023-05-21T15:50:01;26.00;85.10
34147;DHT22;20423;49.448;9.056;2023-05-21T15:52:26;26.20;87.30
34147;DHT22;20423;49.448;9.056;2023-05-21T15:54:52;26.00;86.30
34147;DHT22;20423;49.448;9.056;2023-05-21T15:57:18;26.20;86.50
34147;DHT22;20423;49.448;9.056;2023-05-21T15:59:43;26.50;86.60
34147;DHT22;20423;49.448;9.056;2023-05-21T16:02:09;26.70;85.50
34147;DHT22;20423;49.448;9.056;2023-05-21T16:04:35;26.50;85.80
34147;DHT22;20423;49.448;9.056;2023-05-21T16:07:01;26.70;85.10
34147;DHT22;20423;49.448;9.056;2023-05-21T16:09:26;26.80;84.60
34147;DHT22;20423;49.448;9.056;2023-05-21T16:11:52;27.00;82.50
34147;DHT22;20423;49.448;9.056;2023-05-21T16:14:18;26.90;84.00
34147;DHT22;20423;49.448;9.056;2023-05-21T16:16:43;27.30;83.40
34147;DHT22;20423;49.448;9.056;2023-05-21T16:19:09;27.20;83.90
34147;DHT22;20423;49.448;9.056;2023-05-21T16:21:35;27.50;81.10
34147;DHT22;20423;49.448;9.056;2023-05-21T16:24:00;27.60;80.70
34147;DHT22;20423;49.448;9.056;2023-05-21T16:26:47;27.80;82.30
34147;DHT22;20423;49.448;9.056;2023-05-21T16:29:14;28.20;82.10
34147;DHT22;20423;49.448;9.056;2023-05-21T16:31:39;28.50;80.90
34147;DHT22;20423;49.448;9.056;2023-05-21T16:34:05;28.80;80.60
34147;DHT22;20423;49.448;9.056;2023-05-21T16:36:56;28.60;79.90
34147;DHT22;20423;49.448;9.056;2023-05-21T16:39:23;28.90;80.50
34147;DHT22;20423;49.448;9.056;2023-05-21T16:41:48;28.50;81.40
34147;DHT22;20423;49.448;9.056;2023-05-21T16:44:14;28.40;82.40
34147;DHT22;20423;49.448;9.056;2023-05-21T16:46:40;28.50;82.60
34147;DHT22;20423;49.448;9.056;2023-05-21T16:49:05;28.80;79.80
34147;DHT22;20423;49.448;9.056;2023-05-21T16:51:31;29.30;80.60